sensor_id;sensor_type;location;lat;lon;timestamp;temperature;humidity
2825;DHT22;1420;51.324;12.344;2022-07-22T00:00:28;22.20;90.80
2825;DHT22;1420;51.324;12.344;2022-07-22T00:02:56;22.20;91.20
2825;DHT22;1420;51.324;12.344;2022-07-22T00:05:24;22.20;91.30
2825;DHT22;1420;51.324;12.344;2022-07-22T00:07:52;22.30;92.00
2825;DHT22;1420;51.324;12.344;2022-07-22T00:10:20;22.10;91.90
2825;DHT22;1420;51.324;12.344;2022-07-22T00:12:48;22.10;92.00
2825;DHT22;1420;51.324;12.344;2022-07-22T00:15:16;21.90;92.80
2825;DHT22;1420;51.324;12.344;2022-07-22T00:17:44;21.70;92.80
2825;DHT22;1420;51.324;12.344;2022-07-22T00:20:12;21.70;93.80
2825;DHT22;1420;51.324;12.344;2022-07-22T00:22:40;21.80;94.10
2825;DHT22;1420;51.324;12.344;2022-07-22T00:25:08;21.90;94.00
2825;DHT22;1420;51.324;12.344;2022-07-22T00:27:36;21.90;94.90
2825;DHT22;1420;51.324;12.344;2022-07-22T00:30:04;21.80;94.80
2825;DHT22;1420;51.324;12.344;2022-07-22T00:32:31;21.80;94.40
2825;DHT22;1420;51.324;12.344;2022-07-22T00:34:59;21.80;94.70
2825;DHT22;1420;51.324;12.344;2022-07-22T00:37:26;21.80;95.20
2825;DHT22;1420;51.324;12.344;2022-07-22T00:39:53;21.80;95.40
2825;DHT22;1420;51.324;12.344;2022-07-22T00:42:20;21.80;95.50
2825;DHT22;1420;51.324;12.344;2022-07-22T00:44:48;21.70;96.20
2825;DHT22;1420;51.324;12.344;2022-07-22T00:47:16;21.70;96.20
2825;DHT22;1420;51.324;12.344;2022-07-22T00:49:44;22.00;95.50
2825;DHT22;1420;51.324;12.344;2022-07-22T00:52:12;22.10;95.50
2825;DHT22;1420;51.324;12.344;2022-07-22T00:54:40;22.00;96.10
2825;DHT22;1420;51.324;12.344;2022-07-22T00:57:08;21.80;96.30
2825;DHT22;1420;51.324;12.344;2022-07-22T00:59:36;21.80;96.20
2825;DHT22;1420;51.324;12.344;2022-07-22T01:02:04;21.80;96.20
2825;DHT22;1420;51.324;12.344;2022-07-22T01:04:32;21.60;96.40
2825;DHT22;1420;51.324;12.344;2022-07-22T01:07:00;21.60;96.80
2825;DHT22;1420;51.324;12.344;2022-07-22T01:09:27;21.50;96.50
2825;DHT22;1420;51.324;12.344;2022-07-22T01:11:54;21.60;97.30
2825;DHT22;1420;51.324;12.344;2022-07-22T01:14:22;21.50;97.30
2825;DHT22;1420;51.324;12.344;2022-07-22T01:16:49;21.50;98.00
2825;DHT22;1420;51.324;12.344;2022-07-22T01:19:16;21.20;99.20
2825;DHT22;1420;51.324;12.344;2022-07-22T01:21:43;21.30;99.50
2825;DHT22;1420;51.324;12.344;2022-07-22T01:24:10;21.30;99.90
2825;DHT22;1420;51.324;12.344;2022-07-22T01:26:38;21.10;99.90
2825;DHT22;1420;51.324;12.344;2022-07-22T01:29:07;20.90;99.90
2825;DHT22;1420;51.324;12.344;2022-07-22T01:31:34;20.90;99.90
2825;DHT22;1420;51.324;12.344;2022-07-22T01:34:01;21.10;99.90
2825;DHT22;1420;51.324;12.344;2022-07-22T01:36:28;21.10;99.90
2825;DHT22;1420;51.324;12.344;2022-07-22T01:38:55;21.30;99.90
2825;DHT22;1420;51.324;12.344;2022-07-22T01:41:22;21.30;99.90
2825;DHT22;1420;51.324;12.344;2022-07-22T01:43:50;21.20;99.90
2825;DHT22;1420;51.324;12.344;2022-07-22T01:46:18;21.50;99.90
2825;DHT22;1420;51.324;12.344;2022-07-22T01:48:46;21.40;99.90
2825;DHT22;1420;51.324;12.344;2022-07-22T01:51:14;21.30;99.90
2825;DHT22;1420;51.324;12.344;2022-07-22T01:53:42;21.10;99.90
2825;DHT22;1420;51.324;12.344;2022-07-22T01:56:10;21.00;99.90
2825;DHT22;1420;51.324;12.344;2022-07-22T01:58:37;21.20;99.90
2825;DHT22;1420;51.324;12.344;2022-07-22T02:01:04;21.30;99.90
2825;DHT22;1420;51.324;12.344;2022-07-22T02:03:31;21.10;99.90
2825;DHT22;1420;51.324;12.344;2022-07-22T02:05:58;21.10;99.90
2825;DHT22;1420;51.324;12.344;2022-07-22T02:08:26;21.30;99.90
2825;DHT22;1420;51.324;12.344;2022-07-22T02:10:53;21.30;99.90
2825;DHT22;1420;51.324;12.344;2022-07-22T02:13:20;21.20;99.90
2825;DHT22;1420;51.324;12.344;2022-07-22T02:15:47;21.30;99.90
2825;DHT22;1420;51.324;12.344;2022-07-22T02:18:16;21.30;99.90
2825;DHT22;1420;51.324;12.344;2022-07-22T02:20:42;21.30;99.90
2825;DHT22;1420;51.324;12.344;2022-07-22T02:23:10;21.00;99.90
2825;DHT22;1420;51.324;12.344;2022-07-22T02:25:38;20.70;99.90
2825;DHT22;1420;51.324;12.344;2022-07-22T02:28:05;21.00;99.90
2825;DHT22;1420;51.324;12.344;2022-07-22T02:30:32;21.00;99.90
2825;DHT22;1420;51.324;12.344;2022-07-22T02:32:59;20.90;99.90
2825;DHT22;1420;51.324;12.344;2022-07-22T02:35:26;20.80;99.90
2825;DHT22;1420;51.324;12.344;2022-07-22T02:37:53;20.80;99.90
2825;DHT22;1420;51.324;12.344;2022-07-22T02:40:21;20.40;99.90
2825;DHT22;1420;51.324;12.344;2022-07-22T02:42:49;20.50;99.90
2825;DHT22;1420;51.324;12.344;2022-07-22T02:45:17;20.30;99.90
2825;DHT22;1420;51.324;12.344;2022-07-22T02:47:46;20.30;99.90
2825;DHT22;1420;51.324;12.344;2022-07-22T02:50:13;20.50;99.90
2825;DHT22;1420;51.324;12.344;2022-07-22T02:52:40;20.40;99.90
2825;DHT22;1420;51.324;12.344;2022-07-22T02:55:08;20.40;99.90
2825;DHT22;1420;51.324;12.344;2022-07-22T02:57:35;20.50;99.90
2825;DHT22;1420;51.324;12.344;2022-07-22T03:00:03;20.50;99.90
2825;DHT22;1420;51.324;12.344;2022-07-22T03:02:30;20.40;99.90
2825;DHT22;1420;51.324;12.344;2022-07-22T03:04:58;20.30;99.90
2825;DHT22;1420;51.324;12.344;2022-07-22T03:07:26;20.30;99.90
2825;DHT22;1420;51.324;12.344;2022-07-22T03:09:54;20.30;99.90
2825;DHT22;1420;51.324;12.344;2022-07-22T03:12:22;20.20;99.90
2825;DHT22;1420;51.324;12.344;2022-07-22T03:14:49;20.20;99.90
2825;DHT22;1420;51.324;12.344;2022-07-22T03:17:16;20.10;99.90
2825;DHT22;1420;51.324;12.344;2022-07-22T03:19:43;20.30;99.90
2825;DHT22;1420;51.324;12.344;2022-07-22T03:22:10;20.30;99.90
2825;DHT22;1420;51.324;12.344;2022-07-22T03:24:38;20.30;99.90
2825;DHT22;1420;51.324;12.344;2022-07-22T03:27:06;20.40;99.90
2825;DHT22;1420;51.324;12.344;2022-07-22T03:29:34;20.50;99.90
2825;DHT22;1420;51.324;12.344;2022-07-22T03:32:02;20.60;99.90
2825;DHT22;1420;51.324;12.344;2022-07-22T03:34:29;20.60;99.90
2825;DHT22;1420;51.324;12.344;2022-07-22T03:36:56;20.70;99.90
2825;DHT22;1420;51.324;12.344;2022-07-22T03:39:23;20.40;99.90
2825;DHT22;1420;51.324;12.344;2022-07-22T03:41:50;20.30;99.90
2825;DHT22;1420;51.324;12.344;2022-07-22T03:44:18;20.30;99.90
2825;DHT22;1420;51.324;12.344;2022-07-22T03:46:46;20.30;99.90
2825;DHT22;1420;51.324;12.344;2022-07-22T03:49:14;20.20;99.90
2825;DHT22;1420;51.324;12.344;2022-07-22T03:51:42;20.30;99.90
2825;DHT22;1420;51.324;12.344;2022-07-22T03:54:10;20.40;99.90
2825;DHT22;1420;51.324;12.344;2022-07-22T03:56:37;20.40;99.90
2825;DHT22;1420;51.324;12.344;2022-07-22T03:59:04;20.40;99.90
2825;DHT22;1420;51.324;12.344;2022-07-22T04:01:31;20.30;99.90
2825;DHT22;1420;51.324;12.344;2022-07-22T04:03:58;20.30;99.90
2825;DHT22;1420;51.324;12.344;2022-07-22T04:06:26;20.10;99.90
2825;DHT22;1420;51.324;12.344;2022-07-22T04:08:53;20.20;99.90
2825;DHT22;1420;51.324;12.344;2022-07-22T04:11:20;20.20;99.90
2825;DHT22;1420;51.324;12.344;2022-07-22T04:13:48;20.50;99.90
2825;DHT22;1420;51.324;12.344;2022-07-22T04:16:16;20.50;99.90
2825;DHT22;1420;51.324;12.344;2022-07-22T04:18:43;20.40;99.90
2825;DHT22;1420;51.324;12.344;2022-07-22T04:21:10;20.60;99.90
2825;DHT22;1420;51.324;12.344;2022-07-22T04:23:38;20.80;99.90
2825;DHT22;1420;51.324;12.344;2022-07-22T04:26:05;20.90;99.90
2825;DHT22;1420;51.324;12.344;2022-07-22T04:28:33;20.80;99.90
2825;DHT22;1420;51.324;12.344;2022-07-22T04:31:02;20.80;99.90
2825;DHT22;1420;51.324;12.344;2022-07-22T04:33:29;20.70;99.90
2825;DHT22;1420;51.324;12.344;2022-07-22T04:35:57;20.80;99.90
2825;DHT22;1420;51.324;12.344;2022-07-22T04:38:25;21.00;99.90
2825;DHT22;1420;51.324;12.344;2022-07-22T04:40:53;21.00;99.90
2825;DHT22;1420;51.324;12.344;2022-07-22T04:43:21;21.00;99.90
2825;DHT22;1420;51.324;12.344;2022-07-22T04:45:49;20.70;99.90
2825;DHT22;1420;51.324;12.344;2022-07-22T04:48:17;20.70;99.90
2825;DHT22;1420;51.324;12.344;2022-07-22T04:50:45;20.90;99.90
2825;DHT22;1420;51.324;12.344;2022-07-22T04:53:13;21.00;99.90
2825;DHT22;1420;51.324;12.344;2022-07-22T04:55:41;20.90;99.90
2825;DHT22;1420;51.324;12.344;2022-07-22T04:58:08;20.90;99.90
2825;DHT22;1420;51.324;12.344;2022-07-22T05:00:35;21.00;99.90
2825;DHT22;1420;51.324;12.344;2022-07-22T05:03:02;21.00;99.90
2825;DHT22;1420;51.324;12.344;2022-07-22T05:05:30;21.50;99.90
2825;DHT22;1420;51.324;12.344;2022-07-22T05:07:58;21.60;99.90
2825;DHT22;1420;51.324;12.344;2022-07-22T05:10:26;21.60;99.90
2825;DHT22;1420;51.324;12.344;2022-07-22T05:12:54;21.70;99.90
2825;DHT22;1420;51.324;12.344;2022-07-22T05:15:22;21.80;99.90
2825;DHT22;1420;51.324;12.344;2022-07-22T05:17:49;21.70;99.90
2825;DHT22;1420;51.324;12.344;2022-07-22T05:20:17;21.80;99.90
2825;DHT22;1420;51.324;12.344;2022-07-22T05:22:44;22.10;99.90
2825;DHT22;1420;51.324;12.344;2022-07-22T05:25:12;21.90;99.90
2825;DHT22;1420;51.324;12.344;2022-07-22T05:27:48;21.90;99.90
2825;DHT22;1420;51.324;12.344;2022-07-22T05:30:07;22.10;99.90
2825;DHT22;1420;51.324;12.344;2022-07-22T05:32:35;22.10;99.90
2825;DHT22;1420;51.324;12.344;2022-07-22T05:35:02;22.10;99.90
2825;DHT22;1420;51.324;12.344;2022-07-22T05:37:29;22.30;99.90
2825;DHT22;1420;51.324;12.344;2022-07-22T05:39:57;22.30;99.90
2825;DHT22;1420;51.324;12.344;2022-07-22T05:42:25;22.30;99.90
2825;DHT22;1420;51.324;12.344;2022-07-22T05:44:53;22.40;99.90
2825;DHT22;1420;51.324;12.344;2022-07-22T05:47:21;22.30;99.90
2825;DHT22;1420;51.324;12.344;2022-07-22T05:49:49;22.40;99.90
2825;DHT22;1420;51.324;12.344;2022-07-22T05:52:17;22.00;99.90
2825;DHT22;1420;51.324;12.344;2022-07-22T05:54:45;22.10;99.90
2825;DHT22;1420;51.324;12.344;2022-07-22T05:57:13;22.30;99.90
2825;DHT22;1420;51.324;12.344;2022-07-22T05:59:40;22.30;99.90
2825;DHT22;1420;51.324;12.344;2022-07-22T06:02:07;22.10;99.90
2825;DHT22;1420;51.324;12.344;2022-07-22T06:04:35;22.60;99.90
2825;DHT22;1420;51.324;12.344;2022-07-22T06:07:03;23.10;99.90
2825;DHT22;1420;51.324;12.344;2022-07-22T06:09:31;23.90;99.90
2825;DHT22;1420;51.324;12.344;2022-07-22T06:11:59;24.40;99.90
2825;DHT22;1420;51.324;12.344;2022-07-22T06:14:27;24.90;99.90
2825;DHT22;1420;51.324;12.344;2022-07-22T06:16:55;25.10;99.90
2825;DHT22;1420;51.324;12.344;2022-07-22T06:19:23;25.00;99.90
2825;DHT22;1420;51.324;12.344;2022-07-22T06:21:51;25.30;99.90
2825;DHT22;1420;51.324;12.344;2022-07-22T06:24:19;26.20;99.90
2825;DHT22;1420;51.324;12.344;2022-07-22T06:26:47;25.90;99.90
2825;DHT22;1420;51.324;12.344;2022-07-22T06:29:15;25.80;99.90
2825;DHT22;1420;51.324;12.344;2022-07-22T06:31:43;25.50;99.90
2825;DHT22;1420;51.324;12.344;2022-07-22T06:34:10;25.50;99.90
2825;DHT22;1420;51.324;12.344;2022-07-22T06:36:37;25.20;99.90
2825;DHT22;1420;51.324;12.344;2022-07-22T06:39:05;24.80;99.90
2825;DHT22;1420;51.324;12.344;2022-07-22T06:41:32;24.50;99.90
2825;DHT22;1420;51.324;12.344;2022-07-22T06:43:59;24.60;99.90
2825;DHT22;1420;51.324;12.344;2022-07-22T06:46:26;24.70;99.90
2825;DHT22;1420;51.324;12.344;2022-07-22T06:48:53;24.70;99.90
2825;DHT22;1420;51.324;12.344;2022-07-22T06:51:21;25.30;99.90
2825;DHT22;1420;51.324;12.344;2022-07-22T06:53:48;25.90;99.90
2825;DHT22;1420;51.324;12.344;2022-07-22T06:56:15;26.00;99.90
2825;DHT22;1420;51.324;12.344;2022-07-22T06:58:42;26.40;99.90
2825;DHT22;1420;51.324;12.344;2022-07-22T07:01:09;26.50;99.90
2825;DHT22;1420;51.324;12.344;2022-07-22T07:03:37;27.50;99.90
2825;DHT22;1420;51.324;12.344;2022-07-22T07:06:06;27.50;99.90
2825;DHT22;1420;51.324;12.344;2022-07-22T07:08:32;27.50;99.90
2825;DHT22;1420;51.324;12.344;2022-07-22T07:10:59;27.20;99.90
2825;DHT22;1420;51.324;12.344;2022-07-22T07:13:26;26.90;99.90
2825;DHT22;1420;51.324;12.344;2022-07-22T07:15:53;26.50;99.90
2825;DHT22;1420;51.324;12.344;2022-07-22T07:18:21;26.60;99.90
2825;DHT22;1420;51.324;12.344;2022-07-22T07:20:48;26.80;99.90
2825;DHT22;1420;51.324;12.344;2022-07-22T07:23:15;26.60;99.90
2825;DHT22;1420;51.324;12.344;2022-07-22T07:25:42;26.10;99.90
2825;DHT22;1420;51.324;12.344;2022-07-22T07:28:09;26.40;99.90
2825;DHT22;1420;51.324;12.344;2022-07-22T07:30:37;26.20;99.90
2825;DHT22;1420;51.324;12.344;2022-07-22T07:33:04;26.60;99.90
2825;DHT22;1420;51.324;12.344;2022-07-22T07:35:31;27.20;99.90
2825;DHT22;1420;51.324;12.344;2022-07-22T07:37:58;27.30;99.90
2825;DHT22;1420;51.324;12.344;2022-07-22T07:40:26;27.80;99.90
2825;DHT22;1420;51.324;12.344;2022-07-22T07:42:53;28.30;99.90
2825;DHT22;1420;51.324;12.344;2022-07-22T07:45:20;29.20;99.90
2825;DHT22;1420;51.324;12.344;2022-07-22T07:47:48;29.80;99.90
2825;DHT22;1420;51.324;12.344;2022-07-22T07:50:15;29.10;99.90
2825;DHT22;1420;51.324;12.344;2022-07-22T07:52:43;28.40;99.90
2825;DHT22;1420;51.324;12.344;2022-07-22T07:55:09;27.50;99.90
2825;DHT22;1420;51.324;12.344;2022-07-22T07:57:36;26.90;99.90
2825;DHT22;1420;51.324;12.344;2022-07-22T08:00:05;26.50;99.90
2825;DHT22;1420;51.324;12.344;2022-07-22T08:02:31;26.40;99.90
2825;DHT22;1420;51.324;12.344;2022-07-22T08:04:59;25.80;99.90
2825;DHT22;1420;51.324;12.344;2022-07-22T08:07:26;26.30;99.90
2825;DHT22;1420;51.324;12.344;2022-07-22T08:09:53;27.30;99.90
2825;DHT22;1420;51.324;12.344;2022-07-22T08:12:20;28.40;99.90
2825;DHT22;1420;51.324;12.344;2022-07-22T08:14:47;28.60;99.90
2825;DHT22;1420;51.324;12.344;2022-07-22T08:17:15;28.90;99.90
2825;DHT22;1420;51.324;12.344;2022-07-22T08:19:42;28.40;99.90
2825;DHT22;1420;51.324;12.344;2022-07-22T08:22:09;29.50;99.90
2825;DHT22;1420;51.324;12.344;2022-07-22T08:24:36;28.80;99.90
2825;DHT22;1420;51.324;12.344;2022-07-22T08:27:03;28.60;99.90
2825;DHT22;1420;51.324;12.344;2022-07-22T08:29:31;27.80;99.90
2825;DHT22;1420;51.324;12.344;2022-07-22T08:31:58;28.00;99.90
2825;DHT22;1420;51.324;12.344;2022-07-22T08:34:25;28.50;99.90
2825;DHT22;1420;51.324;12.344;2022-07-22T08:36:52;29.00;99.90
2825;DHT22;1420;51.324;12.344;2022-07-22T08:39:19;29.80;99.90
2825;DHT22;1420;51.324;12.344;2022-07-22T08:41:47;29.20;99.90
2825;DHT22;1420;51.324;12.344;2022-07-22T08:44:14;28.40;99.90
2825;DHT22;1420;51.324;12.344;2022-07-22T08:46:43;27.70;99.90
2825;DHT22;1420;51.324;12.344;2022-07-22T08:49:08;27.40;99.90
2825;DHT22;1420;51.324;12.344;2022-07-22T08:51:35;27.80;99.90
2825;DHT22;1420;51.324;12.344;2022-07-22T08:54:03;28.90;99.90
2825;DHT22;1420;51.324;12.344;2022-07-22T08:56:30;28.70;99.90
2825;DHT22;1420;51.324;12.344;2022-07-22T08:58:57;28.40;99.90
2825;DHT22;1420;51.324;12.344;2022-07-22T09:01:24;28.80;99.90
2825;DHT22;1420;51.324;12.344;2022-07-22T09:03:54;28.40;99.90
2825;DHT22;1420;51.324;12.344;2022-07-22T09:06:21;28.80;99.90
2825;DHT22;1420;51.324;12.344;2022-07-22T09:09:00;28.10;99.90
2825;DHT22;1420;51.324;12.344;2022-07-22T09:11:28;28.50;99.90
2825;DHT22;1420;51.324;12.344;2022-07-22T09:13:55;27.90;99.90
2825;DHT22;1420;51.324;12.344;2022-07-22T09:19:01;28.50;99.90
2825;DHT22;1420;51.324;12.344;2022-07-22T09:21:29;27.70;99.90
2825;DHT22;1420;51.324;12.344;2022-07-22T09:23:56;27.80;99.90
2825;DHT22;1420;51.324;12.344;2022-07-22T09:26:29;27.70;99.90
2825;DHT22;1420;51.324;12.344;2022-07-22T09:28:56;27.40;99.90
2825;DHT22;1420;51.324;12.344;2022-07-22T09:31:27;27.80;99.90
2825;DHT22;1420;51.324;12.344;2022-07-22T09:33:54;27.70;99.90
2825;DHT22;1420;51.324;12.344;2022-07-22T09:36:21;28.90;99.90
2825;DHT22;1420;51.324;12.344;2022-07-22T09:38:48;28.60;99.90
2825;DHT22;1420;51.324;12.344;2022-07-22T09:41:15;28.00;99.90
2825;DHT22;1420;51.324;12.344;2022-07-22T09:43:42;27.60;99.90
2825;DHT22;1420;51.324;12.344;2022-07-22T09:46:10;27.40;99.90
2825;DHT22;1420;51.324;12.344;2022-07-22T09:48:38;26.80;99.90
2825;DHT22;1420;51.324;12.344;2022-07-22T09:51:05;26.60;99.90
2825;DHT22;1420;51.324;12.344;2022-07-22T09:53:33;26.70;99.90
2825;DHT22;1420;51.324;12.344;2022-07-22T09:56:02;26.70;99.90
2825;DHT22;1420;51.324;12.344;2022-07-22T09:58:28;27.00;99.90
2825;DHT22;1420;51.324;12.344;2022-07-22T10:00:58;26.90;99.90
2825;DHT22;1420;51.324;12.344;2022-07-22T10:03:26;27.10;99.90
2825;DHT22;1420;51.324;12.344;2022-07-22T10:05:52;27.10;99.90
2825;DHT22;1420;51.324;12.344;2022-07-22T10:08:19;27.30;99.90
2825;DHT22;1420;51.324;12.344;2022-07-22T10:10:47;27.50;99.90
2825;DHT22;1420;51.324;12.344;2022-07-22T10:13:14;27.70;99.90
2825;DHT22;1420;51.324;12.344;2022-07-22T10:15:41;27.90;99.90
2825;DHT22;1420;51.324;12.344;2022-07-22T10:18:13;28.20;99.90
2825;DHT22;1420;51.324;12.344;2022-07-22T10:20:37;28.20;99.90
2825;DHT22;1420;51.324;12.344;2022-07-22T10:23:06;29.10;99.90
2825;DHT22;1420;51.324;12.344;2022-07-22T10:25:53;28.40;99.90
2825;DHT22;1420;51.324;12.344;2022-07-22T10:28:21;28.40;99.90
2825;DHT22;1420;51.324;12.344;2022-07-22T10:30:48;26.90;99.90
2825;DHT22;1420;51.324;12.344;2022-07-22T10:33:17;26.30;99.90
2825;DHT22;1420;51.324;12.344;2022-07-22T10:35:55;26.20;99.90
2825;DHT22;1420;51.324;12.344;2022-07-22T10:38:21;25.50;99.90
2825;DHT22;1420;51.324;12.344;2022-07-22T10:40:56;26.10;99.90
2825;DHT22;1420;51.324;12.344;2022-07-22T10:43:26;26.90;99.90
2825;DHT22;1420;51.324;12.344;2022-07-22T10:45:55;26.80;99.90
2825;DHT22;1420;51.324;12.344;2022-07-22T10:48:45;26.70;99.90
2825;DHT22;1420;51.324;12.344;2022-07-22T10:51:12;25.90;99.90
2825;DHT22;1420;51.324;12.344;2022-07-22T10:53:44;26.00;99.90
2825;DHT22;1420;51.324;12.344;2022-07-22T10:56:15;25.90;99.90
2825;DHT22;1420;51.324;12.344;2022-07-22T10:58:43;26.00;99.90
2825;DHT22;1420;51.324;12.344;2022-07-22T11:01:10;26.10;99.90
2825;DHT22;1420;51.324;12.344;2022-07-22T11:03:37;25.90;99.90
2825;DHT22;1420;51.324;12.344;2022-07-22T11:06:29;25.90;99.90
2825;DHT22;1420;51.324;12.344;2022-07-22T11:08:57;26.00;99.90
2825;DHT22;1420;51.324;12.344;2022-07-22T11:11:32;26.00;99.90
2825;DHT22;1420;51.324;12.344;2022-07-22T11:13:59;26.00;99.90
2825;DHT22;1420;51.324;12.344;2022-07-22T11:16:27;26.20;99.90
2825;DHT22;1420;51.324;12.344;2022-07-22T11:18:59;26.10;99.90
2825;DHT22;1420;51.324;12.344;2022-07-22T11:21:26;25.50;99.90
2825;DHT22;1420;51.324;12.344;2022-07-22T11:23:53;26.10;99.90
2825;DHT22;1420;51.324;12.344;2022-07-22T11:26:52;25.90;99.90
2825;DHT22;1420;51.324;12.344;2022-07-22T11:29:02;26.00;99.90
2825;DHT22;1420;51.324;12.344;2022-07-22T11:31:29;26.00;99.90
2825;DHT22;1420;51.324;12.344;2022-07-22T11:34:13;26.30;99.90
2825;DHT22;1420;51.324;12.344;2022-07-22T11:36:40;26.60;99.90
2825;DHT22;1420;51.324;12.344;2022-07-22T11:39:07;26.60;99.90
2825;DHT22;1420;51.324;12.344;2022-07-22T11:41:34;27.30;99.90
2825;DHT22;1420;51.324;12.344;2022-07-22T11:44:01;27.90;99.90
2825;DHT22;1420;51.324;12.344;2022-07-22T11:46:33;27.80;99.90
2825;DHT22;1420;51.324;12.344;2022-07-22T11:48:55;28.20;99.90
2825;DHT22;1420;51.324;12.344;2022-07-22T11:51:27;28.50;99.90
2825;DHT22;1420;51.324;12.344;2022-07-22T11:53:50;28.00;99.90
2825;DHT22;1420;51.324;12.344;2022-07-22T11:56:17;28.00;99.90
2825;DHT22;1420;51.324;12.344;2022-07-22T11:58:45;27.70;99.90
2825;DHT22;1420;51.324;12.344;2022-07-22T12:01:13;27.40;99.90
2825;DHT22;1420;51.324;12.344;2022-07-22T12:03:41;27.40;99.90
2825;DHT22;1420;51.324;12.344;2022-07-22T12:06:08;27.60;99.90
2825;DHT22;1420;51.324;12.344;2022-07-22T12:08:38;27.60;99.90
2825;DHT22;1420;51.324;12.344;2022-07-22T12:11:02;27.70;99.90
2825;DHT22;1420;51.324;12.344;2022-07-22T12:13:30;27.20;99.90
2825;DHT22;1420;51.324;12.344;2022-07-22T12:15:57;27.50;99.90
2825;DHT22;1420;51.324;12.344;2022-07-22T12:18:26;27.00;99.90
2825;DHT22;1420;51.324;12.344;2022-07-22T12:20:53;27.00;99.90
2825;DHT22;1420;51.324;12.344;2022-07-22T12:23:21;28.00;99.90
2825;DHT22;1420;51.324;12.344;2022-07-22T12:25:51;27.90;99.90
2825;DHT22;1420;51.324;12.344;2022-07-22T12:28:18;27.60;99.90
2825;DHT22;1420;51.324;12.344;2022-07-22T12:30:45;28.00;99.90
2825;DHT22;1420;51.324;12.344;2022-07-22T12:33:13;27.90;99.90
2825;DHT22;1420;51.324;12.344;2022-07-22T12:35:39;27.40;99.90
2825;DHT22;1420;51.324;12.344;2022-07-22T12:38:07;27.10;99.90
2825;DHT22;1420;51.324;12.344;2022-07-22T12:40:34;27.40;99.90
2825;DHT22;1420;51.324;12.344;2022-07-22T12:43:03;27.90;99.90
2825;DHT22;1420;51.324;12.344;2022-07-22T12:45:29;28.20;99.90
2825;DHT22;1420;51.324;12.344;2022-07-22T12:47:56;28.30;99.90
2825;DHT22;1420;51.324;12.344;2022-07-22T12:50:28;28.50;99.90
2825;DHT22;1420;51.324;12.344;2022-07-22T12:52:57;28.50;99.90
2825;DHT22;1420;51.324;12.344;2022-07-22T12:55:24;28.40;99.90
2825;DHT22;1420;51.324;12.344;2022-07-22T12:57:51;28.20;99.90
2825;DHT22;1420;51.324;12.344;2022-07-22T13:00:20;28.20;99.90
2825;DHT22;1420;51.324;12.344;2022-07-22T13:02:47;28.70;99.90
2825;DHT22;1420;51.324;12.344;2022-07-22T13:05:15;28.10;99.90
2825;DHT22;1420;51.324;12.344;2022-07-22T13:07:42;28.10;99.90
2825;DHT22;1420;51.324;12.344;2022-07-22T13:10:10;28.40;99.90
2825;DHT22;1420;51.324;12.344;2022-07-22T13:12:36;28.40;99.90
2825;DHT22;1420;51.324;12.344;2022-07-22T13:15:04;28.70;99.90
2825;DHT22;1420;51.324;12.344;2022-07-22T13:17:31;28.00;99.90
2825;DHT22;1420;51.324;12.344;2022-07-22T13:19:59;27.90;99.90
2825;DHT22;1420;51.324;12.344;2022-07-22T13:22:27;28.00;99.90
2825;DHT22;1420;51.324;12.344;2022-07-22T13:24:55;28.50;99.90
2825;DHT22;1420;51.324;12.344;2022-07-22T13:27:23;28.90;99.90
2825;DHT22;1420;51.324;12.344;2022-07-22T13:29:51;28.80;99.90
2825;DHT22;1420;51.324;12.344;2022-07-22T13:32:19;28.90;99.90
2825;DHT22;1420;51.324;12.344;2022-07-22T13:34:47;29.50;99.90
2825;DHT22;1420;51.324;12.344;2022-07-22T13:37:15;29.40;99.90
2825;DHT22;1420;51.324;12.344;2022-07-22T13:39:43;29.50;99.90
2825;DHT22;1420;51.324;12.344;2022-07-22T13:42:11;29.50;99.90
2825;DHT22;1420;51.324;12.344;2022-07-22T13:44:37;29.70;99.90
2825;DHT22;1420;51.324;12.344;2022-07-22T13:47:05;29.00;99.90
2825;DHT22;1420;51.324;12.344;2022-07-22T13:49:32;28.80;99.90
2825;DHT22;1420;51.324;12.344;2022-07-22T13:51:59;29.00;99.90
2825;DHT22;1420;51.324;12.344;2022-07-22T13:54:26;29.00;99.90
2825;DHT22;1420;51.324;12.344;2022-07-22T13:56:54;28.40;99.90
2825;DHT22;1420;51.324;12.344;2022-07-22T13:59:22;28.30;99.90
2825;DHT22;1420;51.324;12.344;2022-07-22T14:01:48;28.30;99.90
2825;DHT22;1420;51.324;12.344;2022-07-22T14:04:16;27.60;99.90
2825;DHT22;1420;51.324;12.344;2022-07-22T14:06:44;27.60;99.90
2825;DHT22;1420;51.324;12.344;2022-07-22T14:09:12;27.70;99.90
2825;DHT22;1420;51.324;12.344;2022-07-22T14:11:40;27.60;99.90
2825;DHT22;1420;51.324;12.344;2022-07-22T14:14:08;27.30;99.90
2825;DHT22;1420;51.324;12.344;2022-07-22T14:16:36;27.40;99.90
2825;DHT22;1420;51.324;12.344;2022-07-22T14:19:07;27.50;99.90
2825;DHT22;1420;51.324;12.344;2022-07-22T14:21:33;27.50;99.90
2825;DHT22;1420;51.324;12.344;2022-07-22T14:24:00;27.60;99.90
2825;DHT22;1420;51.324;12.344;2022-07-22T14:26:27;27.80;99.90
2825;DHT22;1420;51.324;12.344;2022-07-22T14:28:54;28.10;99.90
2825;DHT22;1420;51.324;12.344;2022-07-22T14:31:21;28.20;99.90
2825;DHT22;1420;51.324;12.344;2022-07-22T14:33:48;28.40;99.90
2825;DHT22;1420;51.324;12.344;2022-07-22T14:36:16;28.40;99.90
2825;DHT22;1420;51.324;12.344;2022-07-22T14:38:44;27.80;99.90
2825;DHT22;1420;51.324;12.344;2022-07-22T14:41:12;27.70;99.90
2825;DHT22;1420;51.324;12.344;2022-07-22T14:43:40;27.70;99.90
2825;DHT22;1420;51.324;12.344;2022-07-22T14:46:08;27.80;99.90
2825;DHT22;1420;51.324;12.344;2022-07-22T14:48:37;27.70;99.90
2825;DHT22;1420;51.324;12.344;2022-07-22T14:51:03;27.50;99.90
2825;DHT22;1420;51.324;12.344;2022-07-22T14:53:31;27.40;99.90
2825;DHT22;1420;51.324;12.344;2022-07-22T14:55:58;27.70;99.90
2825;DHT22;1420;51.324;12.344;2022-07-22T14:58:25;27.60;99.90
2825;DHT22;1420;51.324;12.344;2022-07-22T15:00:52;27.60;99.90
2825;DHT22;1420;51.324;12.344;2022-07-22T15:03:19;27.20;99.90
2825;DHT22;1420;51.324;12.344;2022-07-22T15:05:46;27.40;99.90
2825;DHT22;1420;51.324;12.344;2022-07-22T15:08:14;27.20;99.90
2825;DHT22;1420;51.324;12.344;2022-07-22T15:10:42;27.10;99.90
2825;DHT22;1420;51.324;12.344;2022-07-22T15:13:10;27.20;99.90
2825;DHT22;1420;51.324;12.344;2022-07-22T15:15:38;27.40;99.90
2825;DHT22;1420;51.324;12.344;2022-07-22T15:18:06;27.30;99.90
2825;DHT22;1420;51.324;12.344;2022-07-22T15:20:34;27.20;99.90
2825;DHT22;1420;51.324;12.344;2022-07-22T15:23:02;27.30;99.90
2825;DHT22;1420;51.324;12.344;2022-07-22T15:25:30;27.40;99.90
2825;DHT22;1420;51.324;12.344;2022-07-22T15:27:57;27.30;99.90
2825;DHT22;1420;51.324;12.344;2022-07-22T15:30:25;27.30;99.90
2825;DHT22;1420;51.324;12.344;2022-07-22T15:32:53;27.00;99.90
2825;DHT22;1420;51.324;12.344;2022-07-22T15:35:20;27.00;99.90
2825;DHT22;1420;51.324;12.344;2022-07-22T15:37:47;27.00;99.90
2825;DHT22;1420;51.324;12.344;2022-07-22T15:40:14;27.00;99.90
2825;DHT22;1420;51.324;12.344;2022-07-22T15:42:41;27.10;99.90
2825;DHT22;1420;51.324;12.344;2022-07-22T15:45:10;27.00;99.90
2825;DHT22;1420;51.324;12.344;2022-07-22T15:47:37;27.00;99.90
2825;DHT22;1420;51.324;12.344;2022-07-22T15:50:05;26.90;99.90